createdAt,value
2017-08-04T00:01:07.579Z,18.66
2017-08-04T00:02:08.191Z,18.63
2017-08-04T00:03:08.800Z,18.60
2017-08-04T00:04:09.412Z,18.69
2017-08-04T00:05:10.031Z,18.51
2017-08-04T00:06:10.654Z,18.65
2017-08-04T00:07:11.283Z,18.60
2017-08-04T00:08:11.886Z,18.66
2017-08-04T00:09:12.503Z,18.74
2017-08-04T00:10:13.121Z,18.74
2017-08-04T00:11:13.737Z,18.65
2017-08-04T00:12:14.360Z,18.63
2017-08-04T00:13:14.966Z,18.71
2017-08-04T00:14:15.589Z,18.68
2017-08-04T00:15:16.198Z,18.69
2017-08-04T00:16:16.825Z,18.75
2017-08-04T00:17:17.422Z,18.65
2017-08-04T00:18:18.024Z,18.69
2017-08-04T00:19:18.633Z,18.65
2017-08-04T00:20:19.245Z,18.62
2017-08-04T00:21:19.869Z,18.63
2017-08-04T00:22:20.500Z,18.63
2017-08-04T00:23:21.111Z,18.75
2017-08-04T00:24:21.726Z,18.60
2017-08-04T00:25:22.351Z,18.68
2017-08-04T00:26:22.963Z,18.65
2017-08-04T00:27:23.594Z,18.63
2017-08-04T00:28:24.215Z,18.69
2017-08-04T00:29:24.817Z,18.68
2017-08-04T00:30:25.430Z,18.74
2017-08-04T00:31:26.042Z,18.63
2017-08-04T00:32:26.667Z,18.63
2017-08-04T00:33:27.389Z,18.68
2017-08-04T00:34:27.998Z,18.66
2017-08-04T00:35:28.613Z,18.74
2017-08-04T00:36:29.207Z,18.69
2017-08-04T00:37:29.817Z,18.63
2017-08-04T00:38:30.432Z,18.66
2017-08-04T00:39:31.045Z,18.63
2017-08-04T00:40:31.651Z,18.66
2017-08-04T00:41:32.262Z,18.69
2017-08-04T00:42:32.884Z,18.65
2017-08-04T00:43:33.493Z,18.60
2017-08-04T00:44:34.107Z,18.69
2017-08-04T00:45:34.728Z,18.63
2017-08-04T00:46:35.330Z,18.62
2017-08-04T00:47:35.955Z,18.62
2017-08-04T00:48:36.631Z,18.66
2017-08-04T00:49:37.258Z,18.55
2017-08-04T00:50:37.860Z,18.55
2017-08-04T00:51:38.473Z,18.55
2017-08-04T00:52:39.101Z,18.55
2017-08-04T00:53:39.708Z,18.59
2017-08-04T00:54:40.341Z,18.56
2017-08-04T00:55:40.970Z,18.50
2017-08-04T00:56:41.568Z,18.51
2017-08-04T00:57:42.175Z,18.55
2017-08-04T00:58:42.805Z,18.44
2017-08-04T00:59:43.433Z,18.35
2017-08-04T01:00:44.039Z,18.35
2017-08-04T01:01:44.670Z,18.40
2017-08-04T01:02:45.271Z,18.38
2017-08-04T01:03:45.872Z,18.41
2017-08-04T01:04:46.483Z,18.43
2017-08-04T01:05:47.099Z,18.41
2017-08-04T01:06:47.711Z,18.41
2017-08-04T01:07:48.332Z,18.47
2017-08-04T01:08:48.944Z,18.44
2017-08-04T01:09:49.569Z,18.41
2017-08-04T01:10:50.168Z,18.41
2017-08-04T01:11:50.775Z,18.44
2017-08-04T01:12:51.374Z,18.43
2017-08-04T01:13:51.987Z,18.48
2017-08-04T01:14:52.598Z,18.48
2017-08-04T01:15:53.214Z,18.53
2017-08-04T01:16:53.837Z,18.60
2017-08-04T01:17:54.458Z,18.60
2017-08-04T01:18:55.067Z,18.53
2017-08-04T01:19:55.680Z,18.63
2017-08-04T01:20:56.290Z,18.63
2017-08-04T01:21:56.904Z,18.65
2017-08-04T01:22:57.533Z,18.73
2017-08-04T01:23:58.160Z,18.62
2017-08-04T01:24:58.792Z,18.65
2017-08-04T01:25:59.412Z,18.66
2017-08-04T01:27:00.036Z,18.71
2017-08-04T01:28:00.666Z,18.66
2017-08-04T01:29:01.300Z,18.62
2017-08-04T01:30:01.925Z,18.62
2017-08-04T01:31:02.537Z,18.69
2017-08-04T01:32:03.153Z,18.55
2017-08-04T01:33:03.761Z,18.59
2017-08-04T01:34:04.385Z,18.69
2017-08-04T01:35:04.987Z,18.53
2017-08-04T01:36:05.594Z,18.55
2017-08-04T01:37:06.214Z,18.55
2017-08-04T01:38:06.827Z,18.55
2017-08-04T01:39:07.449Z,18.51
2017-08-04T01:40:08.079Z,18.51
2017-08-04T01:41:08.698Z,18.47
2017-08-04T01:42:09.321Z,18.53
2017-08-04T01:43:09.943Z,18.44
2017-08-04T01:44:10.564Z,18.44
2017-08-04T01:45:11.183Z,18.41
2017-08-04T01:46:11.793Z,18.41
2017-08-04T01:47:12.386Z,18.43
2017-08-04T01:48:13.011Z,18.40
2017-08-04T01:49:13.634Z,18.34
2017-08-04T01:50:14.247Z,18.30
2017-08-04T01:51:14.846Z,18.29
2017-08-04T01:52:15.444Z,18.37
2017-08-04T01:53:16.047Z,18.30
2017-08-04T01:54:16.657Z,18.30
2017-08-04T01:55:17.268Z,18.30
2017-08-04T01:56:17.877Z,18.34
2017-08-04T01:57:18.499Z,18.26
2017-08-04T01:58:19.125Z,18.22
2017-08-04T01:59:19.733Z,18.25
2017-08-04T02:00:20.349Z,18.18
2017-08-04T02:01:20.944Z,18.20
2017-08-04T02:02:21.552Z,18.18
2017-08-04T02:03:22.148Z,18.18
2017-08-04T02:04:22.758Z,18.10
2017-08-04T02:05:23.373Z,18.19
2017-08-04T02:06:23.991Z,18.14
2017-08-04T02:07:24.610Z,18.11
2017-08-04T02:08:25.236Z,18.18
2017-08-04T02:09:25.854Z,18.10
2017-08-04T02:10:26.472Z,18.07
2017-08-04T02:11:27.080Z,18.05
2017-08-04T02:12:27.697Z,18.00
2017-08-04T02:13:28.305Z,17.93
2017-08-04T02:14:28.929Z,17.98
2017-08-04T02:15:29.566Z,17.93
2017-08-04T02:16:30.160Z,17.95
2017-08-04T02:17:30.760Z,17.87
2017-08-04T02:18:31.388Z,17.83
2017-08-04T02:19:31.996Z,17.85
2017-08-04T02:20:32.612Z,17.95
2017-08-04T02:21:33.224Z,17.97
2017-08-04T02:22:33.847Z,17.83
2017-08-04T02:23:34.468Z,17.82
2017-08-04T02:24:35.083Z,17.87
2017-08-04T02:25:35.702Z,17.82
2017-08-04T02:26:36.319Z,17.85
2017-08-04T02:27:36.934Z,17.85
2017-08-04T02:28:37.533Z,17.77
2017-08-04T02:29:38.156Z,17.83
2017-08-04T02:30:38.760Z,17.77
2017-08-04T02:31:39.383Z,17.70
2017-08-04T02:32:40.023Z,17.72
2017-08-04T02:33:40.646Z,17.71
2017-08-04T02:34:41.277Z,17.74
2017-08-04T02:35:41.905Z,17.72
2017-08-04T02:36:42.533Z,17.71
2017-08-04T02:37:43.164Z,17.74
2017-08-04T02:38:43.795Z,17.72
2017-08-04T02:39:44.394Z,17.59
2017-08-04T02:40:44.992Z,17.65
2017-08-04T02:41:45.606Z,17.60
2017-08-04T02:42:46.225Z,17.68
2017-08-04T02:43:46.835Z,17.68
2017-08-04T02:44:47.450Z,17.75
2017-08-04T02:45:48.051Z,17.68
2017-08-04T02:46:48.649Z,17.74
2017-08-04T02:47:49.272Z,17.71
2017-08-04T02:48:49.898Z,17.75
2017-08-04T02:49:50.499Z,17.72
2017-08-04T02:50:51.110Z,17.77
2017-08-04T02:51:51.712Z,17.70
2017-08-04T02:52:52.327Z,17.70
2017-08-04T02:53:52.940Z,17.79
2017-08-04T02:54:53.551Z,17.75
2017-08-04T02:55:54.174Z,17.80
2017-08-04T02:56:54.784Z,17.77
2017-08-04T02:57:55.400Z,17.75
2017-08-04T02:58:56.018Z,17.82
2017-08-04T02:59:56.639Z,17.75
2017-08-04T03:00:57.263Z,17.74
2017-08-04T03:01:57.878Z,17.75
2017-08-04T03:02:58.512Z,17.83
2017-08-04T03:03:59.141Z,17.77
2017-08-04T03:04:59.768Z,17.80
2017-08-04T03:06:00.386Z,17.86
2017-08-04T03:07:01.003Z,17.80
2017-08-04T03:08:01.611Z,17.79
2017-08-04T03:09:02.221Z,17.86
2017-08-04T03:10:02.861Z,17.85
2017-08-04T03:11:03.477Z,17.85
2017-08-04T03:12:04.091Z,17.83
2017-08-04T03:13:04.710Z,17.87
2017-08-04T03:14:05.318Z,17.83
2017-08-04T03:15:05.949Z,17.89
2017-08-04T03:16:06.548Z,17.80
2017-08-04T03:17:07.162Z,17.83
2017-08-04T03:18:07.783Z,17.86
2017-08-04T03:19:08.406Z,17.86
2017-08-04T03:20:08.999Z,17.89
2017-08-04T03:21:09.606Z,17.87
2017-08-04T03:22:10.224Z,17.86
2017-08-04T03:23:10.838Z,17.83
2017-08-04T03:24:11.449Z,17.83
2017-08-04T03:25:12.051Z,17.83
2017-08-04T03:26:12.668Z,17.86
2017-08-04T03:27:13.287Z,17.97
2017-08-04T03:28:13.899Z,17.97
2017-08-04T03:29:14.499Z,17.98
2017-08-04T03:30:15.109Z,17.98
2017-08-04T03:31:15.733Z,18.00
2017-08-04T03:32:16.343Z,18.00
2017-08-04T03:33:16.948Z,18.05
2017-08-04T03:34:17.558Z,18.10
2017-08-04T03:35:18.169Z,17.97
2017-08-04T03:36:18.780Z,18.04
2017-08-04T03:37:19.399Z,18.00
2017-08-04T03:38:20.011Z,17.97
2017-08-04T03:39:20.614Z,17.97
2017-08-04T03:40:21.219Z,18.11
2017-08-04T03:41:21.827Z,18.04
2017-08-04T03:42:22.447Z,18.00
2017-08-04T03:43:23.075Z,17.98
2017-08-04T03:44:23.690Z,18.07
2017-08-04T03:45:24.305Z,17.95
2017-08-04T03:46:24.904Z,18.00
2017-08-04T03:47:25.525Z,18.00
2017-08-04T03:48:26.140Z,18.00
2017-08-04T03:49:26.772Z,17.92
2017-08-04T03:50:27.393Z,17.98
2017-08-04T03:51:28.003Z,17.92
2017-08-04T03:52:28.633Z,18.04
2017-08-04T03:53:29.251Z,17.95
2017-08-04T03:54:29.854Z,17.90
2017-08-04T03:55:30.477Z,18.07
2017-08-04T03:56:31.113Z,17.93
2017-08-04T03:57:31.731Z,18.12
2017-08-04T03:58:32.339Z,18.10
2017-08-04T03:59:32.954Z,18.10
2017-08-04T04:00:33.572Z,18.14
2017-08-04T04:01:34.190Z,18.14
2017-08-04T04:02:34.805Z,18.08
2017-08-04T04:03:35.410Z,18.08
2017-08-04T04:04:36.029Z,18.12
2017-08-04T04:05:36.660Z,18.18
2017-08-04T04:06:37.282Z,18.14
2017-08-04T04:07:37.882Z,18.14
2017-08-04T04:08:38.503Z,18.08
2017-08-04T04:09:39.131Z,18.23
2017-08-04T04:10:39.760Z,18.22
2017-08-04T04:11:40.393Z,18.23
2017-08-04T04:12:40.996Z,18.20
2017-08-04T04:13:41.614Z,18.18
2017-08-04T04:14:42.224Z,18.23
2017-08-04T04:15:42.838Z,18.20
2017-08-04T04:16:43.448Z,18.25
2017-08-04T04:17:44.060Z,18.19
2017-08-04T04:18:44.663Z,18.23
2017-08-04T04:19:45.281Z,18.16
2017-08-04T04:20:45.904Z,18.23
2017-08-04T04:21:46.525Z,18.27
2017-08-04T04:22:47.150Z,18.27
2017-08-04T04:23:47.772Z,18.26
2017-08-04T04:24:48.399Z,18.22
2017-08-04T04:25:49.007Z,18.34
2017-08-04T04:26:49.619Z,18.25
2017-08-04T04:27:50.247Z,18.32
2017-08-04T04:28:50.874Z,18.34
2017-08-04T04:29:51.492Z,18.40
2017-08-04T04:30:52.107Z,18.32
2017-08-04T04:31:52.733Z,18.35
2017-08-04T04:32:53.352Z,18.34
2017-08-04T04:33:53.973Z,18.38
2017-08-04T04:34:54.599Z,18.41
2017-08-04T04:35:55.209Z,18.43
2017-08-04T04:36:55.836Z,18.38
2017-08-04T04:37:56.460Z,18.41
2017-08-04T04:38:57.078Z,18.48
2017-08-04T04:39:57.682Z,18.51
2017-08-04T04:40:58.301Z,18.45
2017-08-04T04:41:58.924Z,18.51
2017-08-04T04:42:59.525Z,18.48
2017-08-04T04:44:00.150Z,18.51
2017-08-04T04:45:00.775Z,18.59
2017-08-04T04:46:01.384Z,18.59
2017-08-04T04:47:01.992Z,18.53
2017-08-04T04:48:02.618Z,18.55
2017-08-04T04:49:03.245Z,18.55
2017-08-04T04:50:03.865Z,18.56
2017-08-04T04:51:04.491Z,18.50
2017-08-04T04:52:05.122Z,18.58
2017-08-04T04:53:05.746Z,18.58
2017-08-04T04:54:06.373Z,18.48
2017-08-04T04:55:06.993Z,18.62
2017-08-04T04:56:07.597Z,18.60
2017-08-04T04:57:08.205Z,18.65
2017-08-04T04:58:08.822Z,18.58
2017-08-04T04:59:09.456Z,18.60
2017-08-04T05:00:10.072Z,18.55
2017-08-04T05:01:10.679Z,18.58
2017-08-04T05:02:11.290Z,18.65
2017-08-04T05:03:11.895Z,18.62
2017-08-04T05:04:12.500Z,18.65
2017-08-04T05:05:13.116Z,18.73
2017-08-04T05:06:13.719Z,18.71
2017-08-04T05:07:14.351Z,18.69
2017-08-04T05:08:14.989Z,18.80
2017-08-04T05:09:15.605Z,18.78
2017-08-04T05:10:16.230Z,18.80
2017-08-04T05:11:16.846Z,18.81
2017-08-04T05:12:17.467Z,18.66
2017-08-04T05:13:18.074Z,18.71
2017-08-04T05:14:18.696Z,18.78
2017-08-04T05:15:19.324Z,18.81
2017-08-04T05:16:19.947Z,18.78
2017-08-04T05:17:20.581Z,18.85
2017-08-04T05:18:21.226Z,18.85
2017-08-04T05:19:21.863Z,18.84
2017-08-04T05:20:22.483Z,18.80
2017-08-04T05:21:23.105Z,18.80
2017-08-04T05:22:23.718Z,18.81
2017-08-04T05:23:24.325Z,18.80
2017-08-04T05:24:24.952Z,18.81
2017-08-04T05:25:25.587Z,18.87
2017-08-04T05:26:26.211Z,18.85
2017-08-04T05:27:26.834Z,18.92
2017-08-04T05:28:27.452Z,18.87
2017-08-04T05:29:28.077Z,18.98
2017-08-04T05:30:28.698Z,18.93
2017-08-04T05:31:29.307Z,18.87
2017-08-04T05:32:29.920Z,18.84
2017-08-04T05:33:30.539Z,18.85
2017-08-04T05:34:31.152Z,18.85
2017-08-04T05:35:31.787Z,18.80
2017-08-04T05:36:32.397Z,18.84
2017-08-04T05:37:33.024Z,18.92
2017-08-04T05:38:33.650Z,18.99
2017-08-04T05:39:34.315Z,18.98
2017-08-04T05:40:34.939Z,18.92
2017-08-04T05:41:35.576Z,18.85
2017-08-04T05:42:36.195Z,18.98
2017-08-04T05:43:36.806Z,18.98
2017-08-04T05:44:37.418Z,18.98
2017-08-04T05:45:38.049Z,18.95
2017-08-04T05:46:38.675Z,18.99
2017-08-04T05:47:39.279Z,19.06
2017-08-04T05:48:39.913Z,19.04
2017-08-04T05:49:40.507Z,19.09
2017-08-04T05:50:41.118Z,19.15
2017-08-04T05:51:41.725Z,19.09
2017-08-04T05:52:42.340Z,19.12
2017-08-04T05:53:42.955Z,19.15
2017-08-04T05:54:43.575Z,19.12
2017-08-04T05:55:44.215Z,19.12
2017-08-04T05:56:44.846Z,19.07
2017-08-04T05:57:45.484Z,19.18
2017-08-04T05:58:46.090Z,19.19
2017-08-04T05:59:46.717Z,19.18
2017-08-04T06:00:47.357Z,19.27
2017-08-04T06:02:13.652Z,19.19
2017-08-04T06:03:14.271Z,19.25
2017-08-04T06:04:14.887Z,19.22
2017-08-04T06:05:15.509Z,19.15
2017-08-04T06:06:16.131Z,19.22
2017-08-04T06:07:16.765Z,19.24
2017-08-04T06:08:17.392Z,19.25
2017-08-04T06:09:18.023Z,19.30
2017-08-04T06:10:18.658Z,19.34
2017-08-04T06:11:19.283Z,19.39
2017-08-04T06:12:19.919Z,19.48
2017-08-04T06:13:20.552Z,19.55
2017-08-04T06:14:21.169Z,19.62
2017-08-04T06:15:21.785Z,19.66
2017-08-04T06:16:22.406Z,19.73
2017-08-04T06:17:23.038Z,19.76
2017-08-04T06:18:23.662Z,19.74
2017-08-04T06:19:24.278Z,19.81
2017-08-04T06:20:24.899Z,19.71
2017-08-04T06:21:25.516Z,19.71
2017-08-04T06:22:26.148Z,19.73
2017-08-04T06:23:26.756Z,19.84
2017-08-04T06:24:27.473Z,19.89
2017-08-04T06:25:28.138Z,19.94
2017-08-04T06:26:28.755Z,20.02
2017-08-04T06:27:29.378Z,20.16
2017-08-04T06:28:29.996Z,20.14
2017-08-04T06:29:30.629Z,20.11
2017-08-04T06:30:31.261Z,20.26
2017-08-04T06:31:31.885Z,20.31
2017-08-04T06:32:32.511Z,20.28
2017-08-04T06:33:33.131Z,20.36
2017-08-04T06:34:33.787Z,20.42
2017-08-04T06:35:34.387Z,20.43
2017-08-04T06:36:35.032Z,20.48
2017-08-04T06:37:35.647Z,20.62
2017-08-04T06:38:36.256Z,20.66
2017-08-04T06:39:36.921Z,20.63
2017-08-04T06:40:37.540Z,20.73
2017-08-04T06:41:38.174Z,20.72
2017-08-04T06:42:38.809Z,20.72
2017-08-04T06:43:39.448Z,20.65
2017-08-04T06:44:40.071Z,20.72
2017-08-04T06:45:40.680Z,20.63
2017-08-04T06:46:41.296Z,20.65
2017-08-04T06:47:41.927Z,20.78
2017-08-04T06:48:42.534Z,20.78
2017-08-04T06:49:43.154Z,20.80
2017-08-04T06:50:43.776Z,20.78
2017-08-04T06:51:44.394Z,20.98
2017-08-04T06:52:45.006Z,21.18
2017-08-04T06:53:45.635Z,21.25
2017-08-04T06:54:46.262Z,21.37
2017-08-04T06:55:46.895Z,21.30
2017-08-04T06:56:47.522Z,21.42
2017-08-04T06:57:48.141Z,21.47
2017-08-04T06:58:48.773Z,21.52
2017-08-04T06:59:49.386Z,21.64
2017-08-04T07:00:50.018Z,21.65
2017-08-04T07:01:50.639Z,21.67
2017-08-04T07:02:51.262Z,21.67
2017-08-04T07:03:51.888Z,21.75
2017-08-04T07:04:52.504Z,21.89
2017-08-04T07:05:53.135Z,21.89
2017-08-04T07:06:53.792Z,21.98
2017-08-04T07:07:54.486Z,22.18
2017-08-04T07:08:55.093Z,22.18
2017-08-04T07:09:55.728Z,22.14
2017-08-04T07:10:56.352Z,22.02
2017-08-04T07:11:56.987Z,22.08
2017-08-04T07:12:57.613Z,22.13
2017-08-04T07:13:58.234Z,22.23
2017-08-04T07:14:58.848Z,22.46
2017-08-04T07:15:59.471Z,22.55
2017-08-04T07:17:00.104Z,22.44
2017-08-04T07:18:00.734Z,22.42
2017-08-04T07:19:01.360Z,22.48
2017-08-04T07:20:01.992Z,22.58
2017-08-04T07:21:02.618Z,22.57
2017-08-04T07:22:03.261Z,22.53
2017-08-04T07:23:03.892Z,22.69
2017-08-04T07:24:04.505Z,22.69
2017-08-04T07:25:05.125Z,22.76
2017-08-04T07:26:05.748Z,22.83
2017-08-04T07:27:06.370Z,22.78
2017-08-04T07:28:06.994Z,22.78
2017-08-04T07:29:07.621Z,22.63
2017-08-04T07:30:08.448Z,22.63
2017-08-04T07:31:09.082Z,22.63
2017-08-04T07:32:09.713Z,22.73
2017-08-04T07:33:10.339Z,22.63
2017-08-04T07:34:10.967Z,22.68
2017-08-04T07:35:11.600Z,22.66
2017-08-04T07:36:12.222Z,22.65
2017-08-04T07:37:12.853Z,22.54
2017-08-04T07:38:13.485Z,22.38
2017-08-04T07:39:14.115Z,22.48
2017-08-04T07:40:14.749Z,22.55
2017-08-04T07:41:15.381Z,22.40
2017-08-04T07:42:15.999Z,22.51
2017-08-04T07:43:16.646Z,22.55
2017-08-04T07:44:17.283Z,22.48
2017-08-04T07:45:17.901Z,22.47
2017-08-04T07:46:18.535Z,22.53
2017-08-04T07:47:19.166Z,22.54
2017-08-04T07:48:19.782Z,22.42
2017-08-04T07:49:20.415Z,22.28
2017-08-04T07:50:21.040Z,22.31
2017-08-04T07:51:21.674Z,22.20
2017-08-04T07:52:22.301Z,22.03
2017-08-04T07:53:22.936Z,22.14
2017-08-04T07:54:23.579Z,22.08
2017-08-04T07:55:24.203Z,22.13
2017-08-04T07:56:24.829Z,22.10
2017-08-04T07:57:25.436Z,22.05
2017-08-04T07:58:26.058Z,22.26
2017-08-04T07:59:26.688Z,22.32
2017-08-04T08:00:27.323Z,22.35
2017-08-04T08:01:27.952Z,22.28
2017-08-04T08:02:28.589Z,22.40
2017-08-04T08:03:29.206Z,22.53
2017-08-04T08:04:29.819Z,22.53
2017-08-04T08:05:30.434Z,22.60
2017-08-04T08:06:31.051Z,22.72
2017-08-04T08:07:31.678Z,22.69
2017-08-04T08:08:32.291Z,22.53
2017-08-04T08:09:32.901Z,22.68
2017-08-04T08:10:33.522Z,22.68
2017-08-04T08:11:34.155Z,22.66
2017-08-04T08:12:34.790Z,22.65
2017-08-04T08:13:35.428Z,22.60
2017-08-04T08:14:36.048Z,22.55
2017-08-04T08:15:36.674Z,22.42
2017-08-04T08:16:37.302Z,22.21
2017-08-04T08:17:37.937Z,22.26
2017-08-04T08:18:38.562Z,22.40
2017-08-04T08:19:39.177Z,22.47
2017-08-04T08:20:39.797Z,22.50
2017-08-04T08:21:40.432Z,22.48
2017-08-04T08:22:41.050Z,22.75
2017-08-04T08:23:41.663Z,22.83
2017-08-04T08:24:42.278Z,22.97
2017-08-04T08:25:42.892Z,22.87
2017-08-04T08:26:43.524Z,22.81
2017-08-04T08:27:44.145Z,22.97
2017-08-04T08:28:44.782Z,23.15
2017-08-04T08:29:45.397Z,23.15
2017-08-04T08:30:46.024Z,23.02
2017-08-04T08:31:46.751Z,23.02
2017-08-04T08:32:47.470Z,22.99
2017-08-04T08:33:48.091Z,22.90
2017-08-04T08:34:48.719Z,22.93
2017-08-04T08:35:49.344Z,22.94
2017-08-04T08:36:49.963Z,23.23
2017-08-04T08:37:50.581Z,23.24
2017-08-04T08:38:51.225Z,23.27
2017-08-04T08:39:51.856Z,23.05
2017-08-04T08:40:52.480Z,23.05
2017-08-04T08:41:53.110Z,22.97
2017-08-04T08:42:53.745Z,23.00
2017-08-04T08:43:54.385Z,22.99
2017-08-04T08:44:54.998Z,23.00
2017-08-04T08:45:55.636Z,22.81
2017-08-04T08:46:56.274Z,22.66
2017-08-04T08:47:56.907Z,22.73
2017-08-04T08:48:57.540Z,22.73
2017-08-04T08:49:58.167Z,22.85
2017-08-04T08:50:58.792Z,22.78
2017-08-04T08:51:59.409Z,22.90
2017-08-04T08:53:00.024Z,23.02
2017-08-04T08:54:00.655Z,23.02
2017-08-04T08:55:01.296Z,23.35
2017-08-04T08:56:01.920Z,23.54
2017-08-04T08:57:02.554Z,24.11
2017-08-04T08:58:03.168Z,24.14
2017-08-04T08:59:03.796Z,24.24
2017-08-04T09:00:04.413Z,24.33
2017-08-04T09:01:05.038Z,24.56
2017-08-04T09:02:05.681Z,24.74
2017-08-04T09:03:06.316Z,25.01
2017-08-04T09:04:06.948Z,25.41
2017-08-04T09:05:07.578Z,25.87
2017-08-04T09:06:08.201Z,26.10
2017-08-04T09:07:08.821Z,26.26
2017-08-04T09:08:09.456Z,26.22
2017-08-04T09:09:10.091Z,26.18
2017-08-04T09:10:10.724Z,26.03
2017-08-04T09:11:11.366Z,25.94
2017-08-04T09:12:11.987Z,26.12
2017-08-04T09:13:12.629Z,26.36
2017-08-04T09:14:13.272Z,26.69
2017-08-04T09:15:13.924Z,27.00
2017-08-04T09:16:14.573Z,27.40
2017-08-04T09:17:15.204Z,27.55
2017-08-04T09:18:15.847Z,27.62
2017-08-04T09:19:16.493Z,28.15
2017-08-04T09:20:17.133Z,28.52
2017-08-04T09:21:17.760Z,28.65
2017-08-04T09:22:18.380Z,28.42
2017-08-04T09:23:19.020Z,28.60
2017-08-04T09:24:19.662Z,28.87
2017-08-04T09:25:20.316Z,28.94
2017-08-04T09:26:20.933Z,28.38
2017-08-04T09:27:21.572Z,28.20
2017-08-04T09:28:22.207Z,28.27
2017-08-04T09:29:22.837Z,28.22
2017-08-04T09:30:23.481Z,27.98
2017-08-04T09:31:24.096Z,28.07
2017-08-04T09:32:24.743Z,27.85
2017-08-04T09:33:25.360Z,27.68
2017-08-04T09:34:25.998Z,27.67
2017-08-04T09:35:26.640Z,27.52
2017-08-04T09:36:27.269Z,27.59
2017-08-04T09:37:27.920Z,27.48
2017-08-04T09:38:28.531Z,27.10
2017-08-04T09:39:29.159Z,27.06
2017-08-04T09:40:29.789Z,27.03
2017-08-04T09:41:30.418Z,26.98
2017-08-04T09:42:31.054Z,26.85
2017-08-04T09:43:31.690Z,26.84
2017-08-04T09:44:32.334Z,27.05
2017-08-04T09:45:32.955Z,27.11
2017-08-04T09:46:33.589Z,26.91
2017-08-04T09:47:34.223Z,26.63
2017-08-04T09:48:34.860Z,26.48
2017-08-04T09:49:35.500Z,26.58
2017-08-04T09:50:36.138Z,26.76
2017-08-04T09:51:36.783Z,26.68
2017-08-04T09:52:37.423Z,26.63
2017-08-04T09:53:38.033Z,26.31
2017-08-04T09:54:38.661Z,26.18
2017-08-04T09:55:39.290Z,26.26
2017-08-04T09:56:39.916Z,26.31
2017-08-04T09:57:40.547Z,26.02
2017-08-04T09:58:41.173Z,25.99
2017-08-04T09:59:41.810Z,25.93
2017-08-04T10:00:42.456Z,26.03
2017-08-04T10:01:43.084Z,26.19
2017-08-04T10:02:43.720Z,26.10
2017-08-04T10:03:44.355Z,26.36
2017-08-04T10:04:44.968Z,26.50
2017-08-04T10:05:45.592Z,26.62
2017-08-04T10:06:46.223Z,26.28
2017-08-04T10:07:46.858Z,26.18
2017-08-04T10:08:47.510Z,25.84
2017-08-04T10:09:48.141Z,25.65
2017-08-04T10:10:48.765Z,25.56
2017-08-04T10:11:49.396Z,25.47
2017-08-04T10:12:50.036Z,25.29
2017-08-04T10:13:50.654Z,25.21
2017-08-04T10:14:51.291Z,25.16
2017-08-04T10:15:51.916Z,25.04
2017-08-04T10:16:52.539Z,25.02
2017-08-04T10:17:53.160Z,24.96
2017-08-04T10:18:53.792Z,24.64
2017-08-04T10:19:54.423Z,24.50
2017-08-04T10:20:55.067Z,24.21
2017-08-04T10:21:55.687Z,24.11
2017-08-04T10:22:56.321Z,24.11
2017-08-04T10:23:56.950Z,24.03
2017-08-04T10:24:57.576Z,23.84
2017-08-04T10:25:58.189Z,23.77
2017-08-04T10:26:58.823Z,23.56
2017-08-04T10:27:59.461Z,23.61
2017-08-04T10:29:00.098Z,23.61
2017-08-04T10:30:00.709Z,23.53
2017-08-04T10:31:01.340Z,23.58
2017-08-04T10:32:01.958Z,23.54
2017-08-04T10:33:02.592Z,23.54
2017-08-04T10:34:03.230Z,23.71
2017-08-04T10:35:03.869Z,23.68
2017-08-04T10:36:04.521Z,23.77
2017-08-04T10:37:05.151Z,23.83
2017-08-04T10:38:05.762Z,23.91
2017-08-04T10:39:06.400Z,23.91
2017-08-04T10:40:07.007Z,23.94
2017-08-04T10:41:07.635Z,24.09
2017-08-04T10:42:08.262Z,24.09
2017-08-04T10:43:08.894Z,24.39
2017-08-04T10:44:09.533Z,24.96
2017-08-04T10:45:10.159Z,25.35
2017-08-04T10:46:10.799Z,25.69
2017-08-04T10:47:11.435Z,25.58
2017-08-04T10:48:12.050Z,25.71
2017-08-04T10:49:12.688Z,25.91
2017-08-04T10:50:13.316Z,26.03
2017-08-04T10:51:13.933Z,26.25
2017-08-04T10:52:14.580Z,26.18
2017-08-04T10:53:15.204Z,26.16
2017-08-04T10:54:15.840Z,26.26
2017-08-04T10:55:16.482Z,26.51
2017-08-04T10:56:17.107Z,26.54
2017-08-04T10:57:17.725Z,26.65
2017-08-04T10:58:18.368Z,26.58
2017-08-04T10:59:18.980Z,26.66
2017-08-04T11:00:19.601Z,26.58
2017-08-04T11:01:20.241Z,26.50
2017-08-04T11:02:20.878Z,26.26
2017-08-04T11:03:21.515Z,26.19
2017-08-04T11:04:22.127Z,26.16
2017-08-04T11:05:22.766Z,25.99
2017-08-04T11:06:23.400Z,25.90
2017-08-04T11:07:24.021Z,25.73
2017-08-04T11:08:24.664Z,25.62
2017-08-04T11:09:25.303Z,25.47
2017-08-04T11:10:25.941Z,25.16
2017-08-04T11:11:26.578Z,25.16
2017-08-04T11:12:27.214Z,24.95
2017-08-04T11:13:27.844Z,24.98
2017-08-04T11:14:28.487Z,24.96
2017-08-04T11:15:29.112Z,24.96
2017-08-04T11:16:29.743Z,25.01
2017-08-04T11:17:30.372Z,25.04
2017-08-04T11:18:31.018Z,24.96
2017-08-04T11:19:31.658Z,25.01
2017-08-04T11:20:32.286Z,25.02
2017-08-04T11:21:32.917Z,25.02
2017-08-04T11:22:33.527Z,25.10
2017-08-04T11:23:34.162Z,25.10
2017-08-04T11:24:34.801Z,25.07
2017-08-04T11:25:35.415Z,25.20
2017-08-04T11:26:36.048Z,25.16
2017-08-04T11:27:36.675Z,25.33
2017-08-04T11:28:37.316Z,25.48
2017-08-04T11:29:37.953Z,25.62
2017-08-04T11:30:38.586Z,25.93
2017-08-04T11:31:39.232Z,25.87
2017-08-04T11:32:39.871Z,25.75
2017-08-04T11:33:40.489Z,25.65
2017-08-04T11:34:41.129Z,25.56
2017-08-04T11:35:41.763Z,25.39
2017-08-04T11:36:42.396Z,25.28
2017-08-04T11:37:43.034Z,25.29
2017-08-04T11:38:43.676Z,25.35
2017-08-04T11:39:44.313Z,25.47
2017-08-04T11:40:44.945Z,25.73
2017-08-04T11:41:45.563Z,25.68
2017-08-04T11:42:46.193Z,25.58
2017-08-04T11:43:46.806Z,25.62
2017-08-04T11:44:47.438Z,25.72
2017-08-04T11:45:48.056Z,25.63
2017-08-04T11:46:48.682Z,25.68
2017-08-04T11:47:49.316Z,25.75
2017-08-04T11:48:49.939Z,25.61
2017-08-04T11:49:50.584Z,25.57
2017-08-04T11:50:51.217Z,25.57
2017-08-04T11:51:52.080Z,25.56
2017-08-04T11:52:52.772Z,25.66
2017-08-04T11:53:53.405Z,25.72
2017-08-04T11:54:54.043Z,25.81
2017-08-04T11:55:54.686Z,25.69
2017-08-04T11:56:55.327Z,25.78
2017-08-04T11:57:55.961Z,25.80
2017-08-04T11:58:56.595Z,25.86
2017-08-04T11:59:57.232Z,25.84
2017-08-04T12:00:57.868Z,25.68
2017-08-04T12:01:58.501Z,25.69
2017-08-04T12:02:59.131Z,25.58
2017-08-04T12:03:59.755Z,25.61
2017-08-04T12:05:00.384Z,25.48
2017-08-04T12:06:01.026Z,25.56
2017-08-04T12:07:01.659Z,25.69
2017-08-04T12:08:02.296Z,25.75
2017-08-04T12:09:02.942Z,25.81
2017-08-04T12:10:03.578Z,25.81
2017-08-04T12:11:04.201Z,25.72
2017-08-04T12:12:04.846Z,25.84
2017-08-04T12:13:05.495Z,26.05
2017-08-04T12:14:06.126Z,26.39
2017-08-04T12:15:06.753Z,26.50
2017-08-04T12:16:07.395Z,26.34
2017-08-04T12:17:08.015Z,26.46
2017-08-04T12:18:08.652Z,26.61
2017-08-04T12:19:09.289Z,26.77
2017-08-04T12:20:09.930Z,26.39
2017-08-04T12:21:10.590Z,26.18
2017-08-04T12:22:11.234Z,26.12
2017-08-04T12:23:12.003Z,25.98
2017-08-04T12:24:12.632Z,25.90
2017-08-04T12:25:13.259Z,25.69
2017-08-04T12:26:13.893Z,25.57
2017-08-04T12:27:14.529Z,25.46
2017-08-04T12:28:15.181Z,25.32
2017-08-04T12:29:15.827Z,25.18
2017-08-04T12:30:16.463Z,24.94
2017-08-04T12:31:17.092Z,25.09
2017-08-04T12:32:17.744Z,24.96
2017-08-04T12:33:18.408Z,25.01
2017-08-04T12:34:19.042Z,25.20
2017-08-04T12:35:19.679Z,25.21
2017-08-04T12:36:20.293Z,25.46
2017-08-04T12:37:20.949Z,25.58
2017-08-04T12:38:21.595Z,25.61
2017-08-04T12:39:22.309Z,25.73
2017-08-04T12:40:22.927Z,25.87
2017-08-04T12:41:23.559Z,25.94
2017-08-04T12:42:24.182Z,25.93
2017-08-04T12:43:24.801Z,25.87
2017-08-04T12:44:25.430Z,25.81
2017-08-04T12:45:26.064Z,25.90
2017-08-04T12:46:26.702Z,26.03
2017-08-04T12:47:27.325Z,26.18
2017-08-04T12:48:27.941Z,26.16
2017-08-04T12:49:28.554Z,26.28
2017-08-04T12:50:29.192Z,26.68
2017-08-04T12:51:29.830Z,26.85
2017-08-04T12:52:30.463Z,26.91
2017-08-04T12:53:31.097Z,27.08
2017-08-04T12:54:31.734Z,27.00
2017-08-04T12:55:32.365Z,27.14
2017-08-04T12:56:32.993Z,27.29
2017-08-04T12:57:33.621Z,27.18
2017-08-04T12:58:34.248Z,27.43
2017-08-04T12:59:34.878Z,27.83
2017-08-04T13:00:35.525Z,28.20
2017-08-04T13:01:36.137Z,61.82